Beardsley, South Dakota
Current Conditions -  °F | °C
As of 6:35 PM on Monday 24 Nov 2014 (Local Time) from KYKN Reporting Station
Clear Clear  
Wind Chill: 11°   Ceiling: Unl
Heat Index: 25°   Visibility: 10mi
Dew Point:   Wind: 17mph
Humidity: 46%   Direction: 310°NW
Pressure: 30.01"   Gusts: NA
Location:  43.4018°N, 97.9102°W
Report Text: KYKN 250035Z AUTO 31015KT 10SM CLR M04/M14 A3001 RMK AO1
Loading
Personal Weather Stations






























Interactive Weather Map New forecast layout! Learn more

10-Day Weather Forecast

Advertisements
Track Severe Weather on mobile